createdAt,value
2023-03-25T00:00:15.441Z,99864.66
2023-03-25T00:04:17.641Z,99869.66
2023-03-25T00:08:19.290Z,99872.91
2023-03-25T00:12:21.029Z,99882.97
2023-03-25T00:16:22.630Z,99894.81
2023-03-25T00:20:24.181Z,99886.19
2023-03-25T00:24:25.996Z,99880.22
2023-03-25T00:28:30.812Z,99874.81
2023-03-25T00:32:33.022Z,99878.88
2023-03-25T00:36:37.609Z,99876.97
2023-03-25T00:40:40.070Z,99871.78
2023-03-25T00:44:41.972Z,99878.69
2023-03-25T00:48:43.728Z,99872.78
2023-03-25T00:52:45.461Z,99874.53
2023-03-25T00:56:47.211Z,99867.00
2023-03-25T01:00:49.594Z,99853.38
2023-03-25T01:04:51.517Z,99849.81
2023-03-25T01:08:53.230Z,99847.94
2023-03-25T01:12:54.751Z,99842.66
2023-03-25T01:16:59.109Z,99840.84
2023-03-25T01:21:02.152Z,99846.00
2023-03-25T01:25:04.079Z,99842.59
2023-03-25T01:29:05.826Z,99840.97
2023-03-25T01:33:08.174Z,99836.88
2023-03-25T01:37:10.008Z,99842.13
2023-03-25T01:41:11.547Z,99845.63
2023-03-25T01:45:15.185Z,99853.13
2023-03-25T01:49:23.438Z,99867.44
2023-03-25T01:53:28.675Z,99890.81
2023-03-25T01:57:31.439Z,99907.56
2023-03-25T02:01:34.210Z,99877.56
2023-03-25T02:06:02.788Z,99856.25
2023-03-25T02:10:07.698Z,99853.28
2023-03-25T02:14:16.393Z,99852.59
2023-03-25T02:18:31.885Z,99834.06
2023-03-25T02:22:47.645Z,99843.84
2023-03-25T02:26:59.766Z,99848.31
2023-03-25T02:31:22.588Z,99846.69
2023-03-25T02:35:43.604Z,99863.75
2023-03-25T02:40:08.578Z,99870.72
2023-03-25T02:45:00.214Z,99876.88
2023-03-25T02:49:16.173Z,99876.22
2023-03-25T02:53:28.076Z,99876.16
2023-03-25T02:57:32.811Z,99878.56
2023-03-25T03:01:36.283Z,99879.47
2023-03-25T03:05:42.810Z,99893.16
2023-03-25T03:09:49.773Z,99891.44
2023-03-25T03:14:00.673Z,99887.09
2023-03-25T03:18:13.211Z,99877.72
2023-03-25T03:22:36.218Z,99877.88
2023-03-25T03:26:50.016Z,99877.56
2023-03-25T03:31:06.730Z,99898.81
2023-03-25T03:35:32.377Z,99899.47
2023-03-25T03:39:38.268Z,99887.25
2023-03-25T03:43:54.633Z,99893.38
2023-03-25T03:47:59.514Z,99903.72
2023-03-25T03:52:17.052Z,99893.44
2023-03-25T03:56:22.409Z,99887.56
2023-03-25T04:00:36.355Z,99900.44
2023-03-25T04:04:38.801Z,99897.09
2023-03-25T04:08:58.655Z,99897.81
2023-03-25T04:13:04.092Z,99893.31
2023-03-25T04:17:06.527Z,99886.47
2023-03-25T04:21:09.836Z,99896.59
2023-03-25T04:25:13.843Z,99892.19
2023-03-25T04:29:15.472Z,99904.75
2023-03-25T04:33:17.713Z,99915.81
2023-03-25T04:37:19.198Z,99916.69
2023-03-25T04:41:20.738Z,99910.81
2023-03-25T04:45:22.391Z,99917.75
2023-03-25T04:49:24.931Z,99913.53
2023-03-25T04:53:27.115Z,99910.13
2023-03-25T04:57:28.671Z,99909.44
2023-03-25T05:01:31.019Z,99913.69
2023-03-25T05:05:32.671Z,99920.50
2023-03-25T05:09:34.233Z,99922.13
2023-03-25T05:13:35.767Z,99919.47
2023-03-25T05:17:37.822Z,99912.56
2023-03-25T05:21:43.510Z,99906.47
2023-03-25T05:25:47.447Z,99909.53
2023-03-25T05:29:49.210Z,99909.38
2023-03-25T05:33:51.524Z,99904.06
2023-03-25T05:37:53.524Z,99909.13
2023-03-25T05:41:55.749Z,99905.16
2023-03-25T05:45:57.387Z,99909.66
2023-03-25T05:50:00.307Z,99913.53
2023-03-25T05:54:02.097Z,99922.84
2023-03-25T05:58:04.385Z,99920.38
2023-03-25T06:02:07.541Z,99935.22
2023-03-25T06:06:18.367Z,99945.03
2023-03-25T06:10:19.976Z,99940.19
2023-03-25T06:14:25.540Z,99952.09
2023-03-25T06:18:27.152Z,99953.94
2023-03-25T06:22:28.827Z,99971.16
2023-03-25T06:26:30.636Z,99969.88
2023-03-25T06:30:32.292Z,99970.47
2023-03-25T06:34:34.034Z,99968.19
2023-03-25T06:38:35.565Z,99962.34
2023-03-25T06:42:44.261Z,99964.00
2023-03-25T06:46:57.887Z,99956.47
2023-03-25T06:51:04.843Z,99951.97
2023-03-25T06:55:06.641Z,99950.88
2023-03-25T06:59:08.226Z,99951.56
2023-03-25T07:03:11.281Z,99942.88
2023-03-25T07:07:12.808Z,99954.84
2023-03-25T07:11:16.189Z,99956.06
2023-03-25T07:15:17.846Z,99948.72
2023-03-25T07:19:20.979Z,99956.13
2023-03-25T07:23:22.711Z,99936.28
2023-03-25T07:27:24.848Z,99934.75
2023-03-25T07:31:35.565Z,99933.69
2023-03-25T07:35:37.240Z,99916.34
2023-03-25T07:39:38.791Z,99923.00
2023-03-25T07:43:40.644Z,99911.06
2023-03-25T07:48:02.951Z,99923.09
2023-03-25T07:52:04.605Z,99919.94
2023-03-25T07:56:07.197Z,99927.13
2023-03-25T08:00:10.763Z,99928.94
2023-03-25T08:04:15.557Z,99939.00
2023-03-25T08:08:17.132Z,99919.63
2023-03-25T08:12:18.681Z,99931.50
2023-03-25T08:16:20.250Z,99915.50
2023-03-25T08:20:22.116Z,99913.94
2023-03-25T08:24:25.070Z,99917.91
2023-03-25T08:28:26.954Z,99904.56
2023-03-25T08:32:28.768Z,99912.16
2023-03-25T08:36:30.680Z,99917.66
2023-03-25T08:40:36.369Z,99936.00
2023-03-25T08:44:38.105Z,99927.94
2023-03-25T08:48:39.843Z,99919.13
2023-03-25T08:52:42.071Z,99943.91
2023-03-25T08:56:43.648Z,99930.31
2023-03-25T09:00:46.615Z,99916.91
2023-03-25T09:04:48.844Z,99917.19
2023-03-25T09:08:50.635Z,99915.69
2023-03-25T09:12:52.736Z,99937.03
2023-03-25T09:16:54.318Z,99918.19
2023-03-25T09:20:59.488Z,99931.41
2023-03-25T09:25:00.970Z,99927.25
2023-03-25T09:29:02.618Z,99920.44
2023-03-25T09:33:04.332Z,99928.16
2023-03-25T09:37:06.042Z,99918.84
2023-03-25T09:41:33.890Z,99914.53
2023-03-25T09:45:39.998Z,99911.13
2023-03-25T09:49:53.437Z,99923.59
2023-03-25T09:54:00.279Z,99912.66
2023-03-25T09:58:20.853Z,99920.91
2023-03-25T10:02:31.575Z,99916.72
2023-03-25T10:07:02.823Z,99921.97
2023-03-25T10:11:16.958Z,99910.06
2023-03-25T10:15:27.548Z,99902.59
2023-03-25T10:19:56.425Z,99896.34
2023-03-25T10:24:18.530Z,99895.03
2023-03-25T10:28:27.405Z,99900.63
2023-03-25T10:32:37.973Z,99911.06
2023-03-25T10:36:49.169Z,99908.31
2023-03-25T10:40:56.707Z,99904.22
2023-03-25T10:44:58.344Z,99900.00
2023-03-25T10:49:00.132Z,99916.81
2023-03-25T10:53:02.136Z,99911.72
2023-03-25T10:57:07.701Z,99910.06
2023-03-25T11:01:20.962Z,99921.13
2023-03-25T11:05:25.780Z,99915.84
2023-03-25T11:09:32.763Z,99916.44
2023-03-25T11:13:34.780Z,99918.38
2023-03-25T11:17:37.746Z,99925.88
2023-03-25T11:21:39.456Z,99920.22
2023-03-25T11:25:42.092Z,99936.06
2023-03-25T11:29:52.839Z,99957.69
2023-03-25T11:34:04.311Z,99965.34
2023-03-25T11:38:20.914Z,100009.97
2023-03-25T11:42:35.694Z,100002.09
2023-03-25T11:46:43.342Z,99982.16
2023-03-25T11:50:54.165Z,99982.78
2023-03-25T11:54:56.675Z,99979.78
2023-03-25T11:59:00.869Z,99962.84
2023-03-25T12:03:12.095Z,99960.41
2023-03-25T12:07:15.325Z,99947.63
2023-03-25T12:11:50.681Z,99956.19
2023-03-25T12:16:01.545Z,99941.09
2023-03-25T12:20:13.513Z,99926.03
2023-03-25T12:24:25.759Z,99935.66
2023-03-25T12:28:56.009Z,99927.75
2023-03-25T12:33:16.393Z,99923.91
2023-03-25T12:37:29.407Z,99921.44
2023-03-25T12:41:48.954Z,99935.38
2023-03-25T12:46:09.463Z,99927.41
2023-03-25T12:50:34.975Z,99899.78
2023-03-25T12:55:07.753Z,99894.69
2023-03-25T12:59:27.458Z,99894.06
2023-03-25T13:03:46.617Z,99892.25
2023-03-25T13:07:52.994Z,99890.53
2023-03-25T13:11:57.226Z,99891.34
2023-03-25T13:16:03.552Z,99883.41
2023-03-25T13:20:10.123Z,99876.38
2023-03-25T13:24:16.697Z,99879.06
2023-03-25T13:28:25.930Z,99886.94
2023-03-25T13:32:38.728Z,99876.69
2023-03-25T13:36:58.657Z,99880.22
2023-03-25T13:41:14.654Z,99869.81
2023-03-25T13:45:21.663Z,99875.81
2023-03-25T13:49:26.264Z,99875.25
2023-03-25T13:53:33.590Z,99865.56
2023-03-25T13:57:53.877Z,99859.56
2023-03-25T14:02:15.927Z,99852.81
2023-03-25T14:06:36.302Z,99847.06
2023-03-25T14:11:15.305Z,99847.00
2023-03-25T14:15:22.589Z,99839.19
2023-03-25T14:19:43.649Z,99849.59
2023-03-25T14:23:45.620Z,99855.00
2023-03-25T14:27:51.271Z,99837.16
2023-03-25T14:32:09.060Z,99847.56
2023-03-25T14:36:10.569Z,99853.53
2023-03-25T14:41:01.272Z,99853.63
2023-03-25T14:45:32.267Z,99842.34
2023-03-25T14:49:56.092Z,99875.06
2023-03-25T14:54:29.609Z,99866.56
2023-03-25T14:58:31.692Z,99853.75
2023-03-25T15:02:33.708Z,99861.44
2023-03-25T15:06:35.355Z,99847.16
2023-03-25T15:10:43.626Z,99850.94
2023-03-25T15:14:49.158Z,99851.94
2023-03-25T15:18:53.849Z,99853.66
2023-03-25T15:23:36.269Z,99870.56
2023-03-25T15:27:58.936Z,99866.03
2023-03-25T15:32:20.560Z,99844.56
2023-03-25T15:36:41.837Z,99857.50
2023-03-25T15:41:02.425Z,99848.13
2023-03-25T15:45:47.118Z,99848.38
2023-03-25T15:50:06.684Z,99842.19
2023-03-25T15:54:32.916Z,99848.25
2023-03-25T15:58:50.995Z,99860.19
2023-03-25T16:03:01.870Z,99875.22
2023-03-25T16:07:07.857Z,99872.38
2023-03-25T16:11:25.082Z,99871.50
2023-03-25T16:15:30.166Z,99861.81
2023-03-25T16:19:42.415Z,99867.63
2023-03-25T16:23:43.984Z,99871.06
2023-03-25T16:27:50.473Z,99862.34
2023-03-25T16:31:58.584Z,99871.66
2023-03-25T16:36:04.354Z,99880.22
2023-03-25T16:40:06.866Z,99871.50
2023-03-25T16:44:13.128Z,99864.63
2023-03-25T16:48:31.248Z,99870.66
2023-03-25T16:52:34.744Z,99870.63
2023-03-25T16:56:39.980Z,99872.41
2023-03-25T17:00:45.540Z,99869.03
2023-03-25T17:04:47.331Z,99880.97
2023-03-25T17:08:52.368Z,99883.41
2023-03-25T17:13:04.339Z,99902.22
2023-03-25T17:17:39.247Z,99895.81
2023-03-25T17:22:01.514Z,99911.84
2023-03-25T17:26:11.790Z,99914.25
2023-03-25T17:30:25.470Z,99934.66
2023-03-25T17:34:27.623Z,99935.41
2023-03-25T17:38:56.239Z,99936.19
2023-03-25T17:42:58.463Z,99949.91
2023-03-25T17:47:00.407Z,99953.44
2023-03-25T17:51:02.617Z,99964.63
2023-03-25T17:55:04.343Z,99975.66
2023-03-25T17:59:13.015Z,99977.19
2023-03-25T18:03:23.013Z,99987.38
2023-03-25T18:07:24.548Z,100002.56
2023-03-25T18:11:26.238Z,100008.81
2023-03-25T18:15:28.289Z,100026.19
2023-03-25T18:19:34.068Z,100038.44
2023-03-25T18:23:35.612Z,100030.97
2023-03-25T18:27:43.759Z,100022.22
2023-03-25T18:31:46.490Z,100027.13
2023-03-25T18:35:48.525Z,100032.16
2023-03-25T18:39:50.047Z,100037.78
2023-03-25T18:43:53.240Z,100057.44
2023-03-25T18:47:56.203Z,100028.19
2023-03-25T18:51:59.133Z,100036.78
2023-03-25T18:56:01.822Z,100034.03
2023-03-25T19:00:09.581Z,100033.91
2023-03-25T19:04:11.130Z,100039.78
2023-03-25T19:08:19.061Z,100047.38
2023-03-25T19:12:20.776Z,100040.25
2023-03-25T19:16:22.330Z,100037.47
2023-03-25T19:20:29.482Z,100040.81
2023-03-25T19:24:31.164Z,100069.88
2023-03-25T19:28:32.787Z,100055.41
2023-03-25T19:32:34.803Z,100064.81
2023-03-25T19:36:36.435Z,100049.03
2023-03-25T19:40:38.172Z,100055.56
2023-03-25T19:44:41.793Z,100056.28
2023-03-25T19:48:43.366Z,100051.84
2023-03-25T19:52:47.200Z,100058.69
2023-03-25T19:56:48.800Z,100072.22
2023-03-25T20:00:51.463Z,100064.41
2023-03-25T20:04:53.272Z,100078.72
2023-03-25T20:08:54.962Z,100070.31
2023-03-25T20:12:57.263Z,100085.03
2023-03-25T20:16:58.982Z,100073.13
2023-03-25T20:21:00.812Z,100068.94
2023-03-25T20:25:03.227Z,100066.22
2023-03-25T20:29:04.869Z,100051.38
2023-03-25T20:33:06.516Z,100049.50
2023-03-25T20:37:09.492Z,100049.50
2023-03-25T20:41:11.790Z,100044.56
2023-03-25T20:45:15.821Z,100047.34
2023-03-25T20:49:19.765Z,100056.69
2023-03-25T20:53:22.793Z,100058.31
2023-03-25T20:57:24.335Z,100065.13
2023-03-25T21:01:26.016Z,100063.25
2023-03-25T21:05:27.760Z,100064.78
2023-03-25T21:09:29.450Z,100077.50
2023-03-25T21:13:31.720Z,100078.28
2023-03-25T21:17:33.779Z,100081.72
2023-03-25T21:21:36.191Z,100076.66
2023-03-25T21:25:37.799Z,100088.78
2023-03-25T21:29:39.562Z,100090.44
2023-03-25T21:33:41.191Z,100091.34
2023-03-25T21:37:42.742Z,100104.16
2023-03-25T21:41:44.359Z,100095.69
2023-03-25T21:45:46.382Z,100092.31
2023-03-25T21:49:49.955Z,100106.91
2023-03-25T21:53:52.743Z,100096.66
2023-03-25T21:57:54.280Z,100095.84
2023-03-25T22:01:56.030Z,100097.34
2023-03-25T22:05:57.688Z,100095.38
2023-03-25T22:09:59.209Z,100078.41
2023-03-25T22:14:01.362Z,100073.47
2023-03-25T22:18:03.004Z,100083.94
2023-03-25T22:22:04.632Z,100080.34
2023-03-25T22:26:07.931Z,100082.56
2023-03-25T22:30:10.076Z,100082.41
2023-03-25T22:34:15.094Z,100078.63
2023-03-25T22:38:17.848Z,100076.75
2023-03-25T22:42:19.688Z,100091.91
2023-03-25T22:46:21.648Z,100091.75
2023-03-25T22:50:24.439Z,100089.94
2023-03-25T22:54:26.092Z,100099.38
2023-03-25T22:58:29.811Z,100099.50
2023-03-25T23:02:31.414Z,100100.63
2023-03-25T23:06:35.591Z,100113.53
2023-03-25T23:10:37.161Z,100119.72
2023-03-25T23:14:40.661Z,100117.00
2023-03-25T23:18:42.778Z,100100.63
2023-03-25T23:22:44.275Z,100102.19
2023-03-25T23:26:46.483Z,100095.50
2023-03-25T23:30:48.011Z,100096.34
2023-03-25T23:34:49.666Z,100108.06
2023-03-25T23:38:51.674Z,100113.88
2023-03-25T23:42:53.336Z,100109.59
2023-03-25T23:46:54.958Z,100093.38
2023-03-25T23:50:57.113Z,100084.16
2023-03-25T23:54:58.690Z,100082.69
2023-03-25T23:59:00.836Z,100080.00
